AirNav   Air Wisconsin pilot careers
 
 1587 users online  

Z40 Goose Bay Airport
Goose Bay, Alaska, USA

GOING TO GOOSE BAY?


FAA INFORMATION EFFECTIVE 01 FEBRUARY 2018

Location

FAA Identifier: Z40
Lat/Long: 61-23-40.7400N / 149-50-32.1700W
61-23.679000N / 149-50.536167W
61.3946500 / -149.8422694
(estimated)
Elevation: 78 ft. / 24 m (estimated)
Variation: 25E (1985)
Time zone: UTC -9 (UTC -8 during Daylight Saving Time)
Zip code: 99654

Airport Operations

Airport use: Open to the public
Activation date: 10/1949
Control tower: no
ARTCC: ANCHORAGE CENTER
FSS: KENAI FLIGHT SERVICE STATION [907-283-8469]
NOTAMs facility: ENA (NOTAM-D service available)
Attendance: UNATNDD
Wind indicator: yes, WINDSOCK UNRELIABLE.
Segmented circle: yes
SEGMENTED CIRCLE IN POOR CONDITION.

Airport Communications

CTAF: 122.9
WX AWOS-3 at FRN (9 nm SE): 118.525 (907-384-0132)
WX AWOS-3P at BCV (10 nm E): 135.55 (907-688-0826)
WX ASOS at MRI (11 nm S): PHONE 907-272-0542
WX ASOS at LHD (13 nm S): PHONE 907-245-1618
WX AWOS-3P at IYS (14 nm NE): 135.25 (907-373-3801)
WX ASOS at ANC (14 nm S): 118.4 (907-248-2033)

Nearby radio navigation aids

VOR radial/distance  VOR name  Freq  Var
BGQr142/11.1BIG LAKE VORTAC112.5019E
TEDr356/14.0ANCHORAGE VOR/DME113.1518E

 
NDB name  Hdg/Dist  Freq  Var  ID
CAMPBELL LAKE008/14.733816ECMQ -.-. -- --.-

Airport Services

Airframe service: NONE
Powerplant service: NONE
Bottled oxygen: NONE
Bulk oxygen: NONE

Runway Information

Runway 8/26

Dimensions: 3000 x 75 ft. / 914 x 23 m
Surface: gravel, in good condition
Runway edge markings: RY 08 & 26 NSTD MKDS; RY ENDS MKD WITH THLD PANELS ONLY.
RUNWAY 8  RUNWAY 26
Latitude: 61-23.693667N61-23.664333N
Longitude: 149-51.048667W149-50.023667W
Elevation: 78.0 ft.78.0 ft.
Traffic pattern: rightleft
Markings: NSTD
Obstructions: 68 ft. trees, 1050 ft. from runway, 15:1 slope to clear45 ft. trees, 590 ft. from runway, 22 ft. left and right of centerline, 13:1 slope to clear

Airport Ownership and Management from official FAA records

Ownership: Publicly-owned
Owner: ALASKA DOT&PF CENTRAL REGION
PO BOX 196900
ANCHORAGE, AK 99519-6900
Phone 907-269-0782
Manager: STEVE BANSE
289 INNER SPRINGER LOOP RD.
PALMER, AK 99645
Phone 907-745-2159

Airport Operational Statistics

Aircraft operations: avg 105/week *
100% transient general aviation
* for 12-month period ending 31 December 2013

Additional Remarks

RY COND NOT MONITORED; RCMD VISUAL INSPECTION PRIOR TO USING.
808 FT AGL LGTD TOWER 11700 FT NNW OF RY.
NO STATE MAINTENANCE PERFORMED ON RUNWAY.
WX CAMERA AVBL ON INTERNET AT HTTP://AVCAMS.FAA.GOV
LARGE MILITARY ACFT OPR AT LOW ALT AROUND R-2203 AND IN VICINITY OF GOOSE BAY, BIRCHWOOD, BIG LAKE ARPTS. MIL ACFT MONITORING MULTIPLE CTAF FREQUENCIES BASED ON FLIGHT PROFILES. SEE CURRENT ANCHORAGE VFR TAC INSERT AND CENTER NOTAMS.

Instrument Procedures

There are no published instrument procedures at Z40.

Some nearby airports with instrument procedures:

PAGQ - Big Lake Airport (8 nm N)
PAED - Elmendorf Air Force Base (9 nm S)
PAFR - Bryant Army Airfield Heliport (9 nm SE)
PAMR - Merrill Field Airport (11 nm S)
PAWS - Wasilla Airport (14 nm NE)
PANC - Ted Stevens Anchorage International Airport (14 nm S)
 
Loc | Ops | Rwys | IFR | FBO | Links
Com | Nav | Svcs | Stats | Notes

Crowley
 
Area around Z40 (Goose Bay Airport)
 
Road maps at: MapQuest Bing Google
 
Aerial photo
WARNING: Photo may not be current or correct
Aerial photo of Z40 (Goose Bay Airport)
Do you have a better or more recent aerial photo of Goose Bay Airport that you would like to share? If so, please send us your photo.

 
Sectional chart

 
Airport distance calculator
Flying to Goose Bay Airport? Find the distance to fly.

From to Z40

Sunrise and sunset
Times for 23-Feb-2018
 Local
(UTC-9)
 Zulu
(UTC)
Morning civil twilight07:3516:35
Sunrise08:1917:19
Sunset18:0603:06
Evening civil twilight18:5103:51

Current date and time
Zulu (UTC)  23-Feb-2018 16:19:07
Local (UTC-9)  23-Feb-2018 07:19:07
 
METAR
PAED 
9nm S 
231556Z AUTO 03005KT 10SM CLR M08/M14 A3016 RMK AO2 SLP212 T10761140
PABV 
9nm E 
231556Z AUTO VRB05KT 10SM CLR M06/M13 A3018 RMK AO2 SLP229 T10561133 FZRANO $
PAFR 
9nm SE 
231558Z AUTO 07005KT 10SM CLR M06/M13 A3014 RMK AO2 SLP218 T10621134
PAMR 
11nm S 
231553Z 06008KT 10SM CLR M05/M13 A3016 RMK AO2 SLP217 T10501128
PALH 
13nm S 
231553Z AUTO 04005KT 10SM CLR M06/M14 A3018 RMK AO2 SLP219 T10611139 TSNO
PANC 
15nm S 
231553Z 02007KT 10SM CLR M05/M14 A3016 RMK AO2 SLP217 T10501139
TAF
PAED 
9nm S 
231100Z 2311/2417 VRB04KT 9999 VCFG SCT005 QNH2965INS TEMPO 2311/2318 4800 BR BKN002 600021 BECMG 2408/2409 01006KT 9000 -SN SCT010 BKN020 620209 QNH2950INS BECMG 2411/2412 VRB06KT 4800 -SN SCT005 BKN020 610208 QNH2945INS TXM02/2400Z TNM09/2316Z
PANC 
15nm S 
231139Z 2312/2418 05006KT 3SM BR SCT002 TEMPO 2312/2316 1/2SM FZFG VV002 FM232000 05008KT P6SM VCFG FEW005 FM240400 36005KT P6SM FEW030 BKN070 FM240800 36005KT 2SM -SN BR BKN010 OVC020
NOTAMs
Click for the latest NOTAMs
NOTAMs are issued by the DoD/FAA and will open in a separate window not controlled by AirNav.

 

 
 

Would you like to see your business listed on this page?

 If your business provides an interesting product or service to pilots, flight crews, aircraft, or users of the Goose Bay Airport, you should consider listing it here.  To start the listing process, click on the button below
 
Add a business
 

Other Pages about Goose Bay Airport

Update a link
 
Copyright © AirNav, LLC. All rights reserved. Privacy Policy  Contact